sensor_id;sensor_type;location;lat;lon;timestamp;pressure;altitude;pressure_sealevel;temperature;humidity
11041;BME280;5573;49.592;8.662;2023-09-07T00:00:21;100174.19;;;19.26;61.91
11041;BME280;5573;49.592;8.662;2023-09-07T00:02:49;100176.84;;;19.21;62.21
11041;BME280;5573;49.592;8.662;2023-09-07T00:05:17;100157.00;;;19.06;62.07
11041;BME280;5573;49.592;8.662;2023-09-07T00:07:45;100174.13;;;19.16;62.34
11041;BME280;5573;49.592;8.662;2023-09-07T00:10:13;100167.31;;;19.09;62.39
11041;BME280;5573;49.592;8.662;2023-09-07T00:12:42;100168.19;;;19.19;61.90
11041;BME280;5573;49.592;8.662;2023-09-07T00:15:11;100171.41;;;19.16;62.05
11041;BME280;5573;49.592;8.662;2023-09-07T00:17:39;100170.59;;;19.16;61.94
11041;BME280;5573;49.592;8.662;2023-09-07T00:20:08;100167.06;;;19.15;61.84
11041;BME280;5573;49.592;8.662;2023-09-07T00:22:41;100171.06;;;19.08;62.15
11041;BME280;5573;49.592;8.662;2023-09-07T00:25:09;100175.69;;;19.12;62.19
11041;BME280;5573;49.592;8.662;2023-09-07T00:27:37;100173.53;;;19.14;62.17
11041;BME280;5573;49.592;8.662;2023-09-07T00:30:06;100180.63;;;19.20;61.80
11041;BME280;5573;49.592;8.662;2023-09-07T00:32:37;100172.59;;;18.99;62.75
11041;BME280;5573;49.592;8.662;2023-09-07T00:35:06;100170.88;;;18.87;63.64
11041;BME280;5573;49.592;8.662;2023-09-07T00:37:34;100172.88;;;18.97;62.84
11041;BME280;5573;49.592;8.662;2023-09-07T00:40:02;100176.84;;;18.89;63.24
11041;BME280;5573;49.592;8.662;2023-09-07T00:42:32;100171.69;;;18.88;63.29
11041;BME280;5573;49.592;8.662;2023-09-07T00:45:00;100176.34;;;18.93;63.24
11041;BME280;5573;49.592;8.662;2023-09-07T00:47:28;100172.81;;;18.92;63.35
11041;BME280;5573;49.592;8.662;2023-09-07T00:49:58;100171.41;;;18.84;63.87
11041;BME280;5573;49.592;8.662;2023-09-07T00:52:27;100167.94;;;18.62;65.66
11041;BME280;5573;49.592;8.662;2023-09-07T00:54:55;100175.03;;;18.47;66.47
11041;BME280;5573;49.592;8.662;2023-09-07T00:57:24;100176.75;;;18.31;66.65
11041;BME280;5573;49.592;8.662;2023-09-07T00:59:52;100179.59;;;18.19;67.01
11041;BME280;5573;49.592;8.662;2023-09-07T01:02:20;100177.81;;;18.52;65.44
11041;BME280;5573;49.592;8.662;2023-09-07T01:04:48;100164.09;;;18.53;65.75
11041;BME280;5573;49.592;8.662;2023-09-07T01:07:20;100150.25;;;18.50;65.11
11041;BME280;5573;49.592;8.662;2023-09-07T01:09:54;100161.03;;;18.71;65.15
11041;BME280;5573;49.592;8.662;2023-09-07T01:12:23;100162.09;;;19.02;62.79
11041;BME280;5573;49.592;8.662;2023-09-07T01:14:51;100157.91;;;19.16;62.12
11041;BME280;5573;49.592;8.662;2023-09-07T01:17:20;100149.47;;;19.08;62.78
11041;BME280;5573;49.592;8.662;2023-09-07T01:19:50;100150.69;;;19.27;61.67
11041;BME280;5573;49.592;8.662;2023-09-07T01:22:20;100151.34;;;19.07;63.17
11041;BME280;5573;49.592;8.662;2023-09-07T01:24:50;100134.50;;;18.95;63.06
11041;BME280;5573;49.592;8.662;2023-09-07T01:27:19;100153.94;;;19.29;61.67
11041;BME280;5573;49.592;8.662;2023-09-07T01:29:47;100152.34;;;19.33;61.92
11041;BME280;5573;49.592;8.662;2023-09-07T01:32:15;100159.63;;;19.27;62.28
11041;BME280;5573;49.592;8.662;2023-09-07T01:34:43;100149.94;;;19.36;61.77
11041;BME280;5573;49.592;8.662;2023-09-07T01:37:11;100164.50;;;19.30;62.30
11041;BME280;5573;49.592;8.662;2023-09-07T01:39:40;100156.81;;;19.12;63.06
11041;BME280;5573;49.592;8.662;2023-09-07T01:42:08;100153.56;;;18.83;64.74
11041;BME280;5573;49.592;8.662;2023-09-07T01:44:36;100150.41;;;18.65;65.69
11041;BME280;5573;49.592;8.662;2023-09-07T01:47:04;100158.53;;;18.43;67.05
11041;BME280;5573;49.592;8.662;2023-09-07T01:49:33;100153.97;;;18.43;65.98
11041;BME280;5573;49.592;8.662;2023-09-07T01:52:01;100155.19;;;18.53;65.46
11041;BME280;5573;49.592;8.662;2023-09-07T01:54:29;100152.88;;;18.66;65.28
11041;BME280;5573;49.592;8.662;2023-09-07T01:56:59;100157.88;;;18.53;65.85
11041;BME280;5573;49.592;8.662;2023-09-07T01:59:27;100157.22;;;18.67;64.58
11041;BME280;5573;49.592;8.662;2023-09-07T02:01:55;100154.78;;;18.98;63.15
11041;BME280;5573;49.592;8.662;2023-09-07T02:04:23;100149.47;;;19.08;62.71
11041;BME280;5573;49.592;8.662;2023-09-07T02:06:51;100153.81;;;19.14;62.51
11041;BME280;5573;49.592;8.662;2023-09-07T02:09:19;100147.53;;;19.03;62.89
11041;BME280;5573;49.592;8.662;2023-09-07T02:11:47;100146.41;;;18.99;62.92
11041;BME280;5573;49.592;8.662;2023-09-07T02:14:16;100141.75;;;18.89;63.55
11041;BME280;5573;49.592;8.662;2023-09-07T02:16:44;100141.75;;;18.89;63.15
11041;BME280;5573;49.592;8.662;2023-09-07T02:19:12;100141.78;;;18.95;62.70
11041;BME280;5573;49.592;8.662;2023-09-07T02:21:42;100145.59;;;18.99;62.83
11041;BME280;5573;49.592;8.662;2023-09-07T02:24:10;100140.94;;;18.89;63.61
11041;BME280;5573;49.592;8.662;2023-09-07T02:26:39;100141.34;;;18.76;64.76
11041;BME280;5573;49.592;8.662;2023-09-07T02:29:12;100137.72;;;18.60;64.88
11041;BME280;5573;49.592;8.662;2023-09-07T02:31:41;100138.16;;;18.52;65.77
11041;BME280;5573;49.592;8.662;2023-09-07T02:34:09;100130.66;;;18.32;66.47
11041;BME280;5573;49.592;8.662;2023-09-07T02:36:37;100134.47;;;18.36;66.09
11041;BME280;5573;49.592;8.662;2023-09-07T02:39:05;100139.53;;;18.55;64.86
11041;BME280;5573;49.592;8.662;2023-09-07T02:41:35;100142.97;;;18.72;64.16
11041;BME280;5573;49.592;8.662;2023-09-07T02:44:03;100135.16;;;18.75;64.10
11041;BME280;5573;49.592;8.662;2023-09-07T02:46:32;100144.03;;;18.71;64.30
11041;BME280;5573;49.592;8.662;2023-09-07T02:49:01;100144.22;;;18.64;64.64
11041;BME280;5573;49.592;8.662;2023-09-07T02:51:29;100140.22;;;18.45;65.75
11041;BME280;5573;49.592;8.662;2023-09-07T02:53:57;100135.78;;;18.34;66.45
11041;BME280;5573;49.592;8.662;2023-09-07T02:56:26;100144.34;;;18.26;66.67
11041;BME280;5573;49.592;8.662;2023-09-07T02:58:54;100136.44;;;18.19;67.59
11041;BME280;5573;49.592;8.662;2023-09-07T03:01:23;100140.25;;;18.02;68.39
11041;BME280;5573;49.592;8.662;2023-09-07T03:03:51;100141.41;;;17.84;69.10
11041;BME280;5573;49.592;8.662;2023-09-07T03:06:21;100142.28;;;17.68;70.36
11041;BME280;5573;49.592;8.662;2023-09-07T03:08:51;100143.00;;;17.46;71.65
11041;BME280;5573;49.592;8.662;2023-09-07T03:11:20;100147.44;;;17.36;72.14
11041;BME280;5573;49.592;8.662;2023-09-07T03:13:49;100142.72;;;17.26;72.62
11041;BME280;5573;49.592;8.662;2023-09-07T03:16:17;100142.53;;;17.16;72.55
11041;BME280;5573;49.592;8.662;2023-09-07T03:18:45;100145.81;;;17.18;72.71
11041;BME280;5573;49.592;8.662;2023-09-07T03:21:14;100140.75;;;17.22;71.98
11041;BME280;5573;49.592;8.662;2023-09-07T03:23:44;100138.94;;;17.27;71.75
11041;BME280;5573;49.592;8.662;2023-09-07T03:26:14;100145.88;;;17.23;72.11
11041;BME280;5573;49.592;8.662;2023-09-07T03:28:43;100140.44;;;17.18;72.86
11041;BME280;5573;49.592;8.662;2023-09-07T03:31:11;100143.38;;;17.17;73.10
11041;BME280;5573;49.592;8.662;2023-09-07T03:33:39;100150.56;;;17.11;73.07
11041;BME280;5573;49.592;8.662;2023-09-07T03:36:07;100139.78;;;17.11;73.83
11041;BME280;5573;49.592;8.662;2023-09-07T03:38:36;100140.44;;;17.18;72.85
11041;BME280;5573;49.592;8.662;2023-09-07T03:41:05;100142.22;;;17.29;72.66
11041;BME280;5573;49.592;8.662;2023-09-07T03:43:33;100148.91;;;17.43;72.10
11041;BME280;5573;49.592;8.662;2023-09-07T03:46:01;100139.59;;;17.34;72.16
11041;BME280;5573;49.592;8.662;2023-09-07T03:48:30;100143.53;;;17.27;72.94
11041;BME280;5573;49.592;8.662;2023-09-07T03:50:58;100141.31;;;17.24;73.68
11041;BME280;5573;49.592;8.662;2023-09-07T03:53:26;100136.94;;;17.18;73.70
11041;BME280;5573;49.592;8.662;2023-09-07T03:55:54;100146.31;;;17.15;73.86
11041;BME280;5573;49.592;8.662;2023-09-07T03:58:23;100141.75;;;17.16;73.52
11041;BME280;5573;49.592;8.662;2023-09-07T04:00:51;100143.38;;;17.33;72.56
11041;BME280;5573;49.592;8.662;2023-09-07T04:03:19;100144.66;;;17.31;72.77
11041;BME280;5573;49.592;8.662;2023-09-07T04:05:50;100144.34;;;17.27;73.01
11041;BME280;5573;49.592;8.662;2023-09-07T04:08:18;100147.19;;;17.21;73.12
11041;BME280;5573;49.592;8.662;2023-09-07T04:10:46;100145.00;;;17.18;73.71
11041;BME280;5573;49.592;8.662;2023-09-07T04:13:14;100153.66;;;17.03;74.61
11041;BME280;5573;49.592;8.662;2023-09-07T04:15:44;100140.66;;;16.83;75.41
11041;BME280;5573;49.592;8.662;2023-09-07T04:18:14;100149.72;;;16.77;75.56
11041;BME280;5573;49.592;8.662;2023-09-07T04:20:44;100158.00;;;16.59;76.47
11041;BME280;5573;49.592;8.662;2023-09-07T04:23:14;100151.13;;;16.52;77.17
11041;BME280;5573;49.592;8.662;2023-09-07T04:25:42;100153.59;;;16.41;77.71
11041;BME280;5573;49.592;8.662;2023-09-07T04:28:13;100147.16;;;16.42;77.20
11041;BME280;5573;49.592;8.662;2023-09-07T04:30:42;100160.53;;;16.37;77.58
11041;BME280;5573;49.592;8.662;2023-09-07T04:33:10;100153.53;;;16.36;77.80
11041;BME280;5573;49.592;8.662;2023-09-07T04:35:39;100161.19;;;16.16;78.47
11041;BME280;5573;49.592;8.662;2023-09-07T04:38:07;100165.19;;;16.02;79.73
11041;BME280;5573;49.592;8.662;2023-09-07T04:40:36;100169.22;;;15.88;80.02
11041;BME280;5573;49.592;8.662;2023-09-07T04:43:04;100176.59;;;15.81;80.75
11041;BME280;5573;49.592;8.662;2023-09-07T04:45:32;100178.78;;;15.72;81.33
11041;BME280;5573;49.592;8.662;2023-09-07T04:48:01;100172.28;;;15.57;81.72
11041;BME280;5573;49.592;8.662;2023-09-07T04:50:30;100176.34;;;15.47;82.71
11041;BME280;5573;49.592;8.662;2023-09-07T04:52:59;100170.84;;;15.42;82.86
11041;BME280;5573;49.592;8.662;2023-09-07T04:55:27;100168.97;;;15.43;83.31
11041;BME280;5573;49.592;8.662;2023-09-07T04:57:55;100171.88;;;15.41;83.78
11041;BME280;5573;49.592;8.662;2023-09-07T05:00:22;100166.88;;;15.33;83.68
11041;BME280;5573;49.592;8.662;2023-09-07T05:02:50;100169.69;;;15.38;83.57
11041;BME280;5573;49.592;8.662;2023-09-07T05:05:20;100163.94;;;15.35;83.60
11041;BME280;5573;49.592;8.662;2023-09-07T05:07:48;100164.09;;;15.40;84.30
11041;BME280;5573;49.592;8.662;2023-09-07T05:10:16;100159.75;;;15.39;83.94
11041;BME280;5573;49.592;8.662;2023-09-07T05:12:44;100161.78;;;15.55;82.87
11041;BME280;5573;49.592;8.662;2023-09-07T05:15:12;100169.69;;;15.73;81.68
11041;BME280;5573;49.592;8.662;2023-09-07T05:17:41;100161.16;;;15.88;80.83
11041;BME280;5573;49.592;8.662;2023-09-07T05:20:09;100168.00;;;16.35;78.32
11041;BME280;5573;49.592;8.662;2023-09-07T05:22:39;100172.41;;;16.41;78.32
11041;BME280;5573;49.592;8.662;2023-09-07T05:25:08;100172.91;;;16.95;74.86
11041;BME280;5573;49.592;8.662;2023-09-07T05:27:38;100154.28;;;16.93;74.45
11041;BME280;5573;49.592;8.662;2023-09-07T05:30:06;100175.44;;;17.18;73.63
11041;BME280;5573;49.592;8.662;2023-09-07T05:32:35;100182.63;;;17.29;73.43
11041;BME280;5573;49.592;8.662;2023-09-07T05:35:04;100179.44;;;17.32;73.63
11041;BME280;5573;49.592;8.662;2023-09-07T05:37:32;100174.59;;;17.34;73.51
11041;BME280;5573;49.592;8.662;2023-09-07T05:40:02;100178.59;;;17.32;73.52
11041;BME280;5573;49.592;8.662;2023-09-07T05:42:31;100181.94;;;17.39;72.84
11041;BME280;5573;49.592;8.662;2023-09-07T05:44:59;100188.63;;;17.53;72.64
11041;BME280;5573;49.592;8.662;2023-09-07T05:47:27;100187.72;;;17.64;72.34
11041;BME280;5573;49.592;8.662;2023-09-07T05:49:56;100190.69;;;17.63;72.69
11041;BME280;5573;49.592;8.662;2023-09-07T05:52:24;100194.25;;;17.68;72.29
11041;BME280;5573;49.592;8.662;2023-09-07T05:54:51;100187.06;;;17.74;72.28
11041;BME280;5573;49.592;8.662;2023-09-07T05:57:21;100199.81;;;17.78;72.62
11041;BME280;5573;49.592;8.662;2023-09-07T05:59:49;100186.06;;;17.80;72.72
11041;BME280;5573;49.592;8.662;2023-09-07T06:02:17;100191.16;;;17.98;72.32
11041;BME280;5573;49.592;8.662;2023-09-07T06:04:45;100195.06;;;18.07;71.92
11041;BME280;5573;49.592;8.662;2023-09-07T06:07:13;100192.44;;;18.12;72.18
11041;BME280;5573;49.592;8.662;2023-09-07T06:09:40;100192.28;;;18.24;71.88
11041;BME280;5573;49.592;8.662;2023-09-07T06:12:08;100197.22;;;18.27;71.34
11041;BME280;5573;49.592;8.662;2023-09-07T06:14:39;100204.59;;;18.36;72.20
11041;BME280;5573;49.592;8.662;2023-09-07T06:17:07;100212.50;;;18.43;72.10
11041;BME280;5573;49.592;8.662;2023-09-07T06:19:35;100204.97;;;18.45;73.22
11041;BME280;5573;49.592;8.662;2023-09-07T06:22:03;100209.78;;;18.43;73.52
11041;BME280;5573;49.592;8.662;2023-09-07T06:24:31;100206.59;;;18.46;72.80
11041;BME280;5573;49.592;8.662;2023-09-07T06:26:59;100211.00;;;18.52;73.25
11041;BME280;5573;49.592;8.662;2023-09-07T06:29:27;100209.84;;;18.48;73.62
11041;BME280;5573;49.592;8.662;2023-09-07T06:31:56;100221.00;;;18.52;74.40
11041;BME280;5573;49.592;8.662;2023-09-07T06:34:25;100220.47;;;18.55;74.80
11041;BME280;5573;49.592;8.662;2023-09-07T06:36:53;100215.53;;;18.68;74.28
11041;BME280;5573;49.592;8.662;2023-09-07T06:39:21;100219.13;;;18.79;73.98
11041;BME280;5573;49.592;8.662;2023-09-07T06:41:49;100226.78;;;18.87;73.93
11041;BME280;5573;49.592;8.662;2023-09-07T06:44:20;100222.84;;;19.00;72.86
11041;BME280;5573;49.592;8.662;2023-09-07T06:46:49;100226.50;;;19.15;72.75
11041;BME280;5573;49.592;8.662;2023-09-07T06:49:19;100228.28;;;19.36;71.31
11041;BME280;5573;49.592;8.662;2023-09-07T06:51:47;100228.28;;;19.36;72.07
11041;BME280;5573;49.592;8.662;2023-09-07T06:54:15;100234.72;;;19.57;71.56
11041;BME280;5573;49.592;8.662;2023-09-07T06:56:43;100234.19;;;19.65;69.18
11041;BME280;5573;49.592;8.662;2023-09-07T06:59:11;100237.00;;;19.80;69.43
11041;BME280;5573;49.592;8.662;2023-09-07T07:01:39;100235.25;;;20.06;66.15
11041;BME280;5573;49.592;8.662;2023-09-07T07:04:07;100235.56;;;20.10;68.16
11041;BME280;5573;49.592;8.662;2023-09-07T07:06:38;100231.81;;;20.16;67.97
11041;BME280;5573;49.592;8.662;2023-09-07T07:09:05;100228.06;;;20.27;67.67
11041;BME280;5573;49.592;8.662;2023-09-07T07:11:33;100237.84;;;20.33;67.75
11041;BME280;5573;49.592;8.662;2023-09-07T07:14:01;100237.69;;;20.60;66.28
11041;BME280;5573;49.592;8.662;2023-09-07T07:16:29;100238.53;;;20.65;64.71
11041;BME280;5573;49.592;8.662;2023-09-07T07:18:58;100242.34;;;20.79;64.56
11041;BME280;5573;49.592;8.662;2023-09-07T07:21:25;100229.66;;;20.95;64.58
11041;BME280;5573;49.592;8.662;2023-09-07T07:23:54;100238.84;;;20.99;63.92
11041;BME280;5573;49.592;8.662;2023-09-07T07:26:22;100240.25;;;21.22;62.66
11041;BME280;5573;49.592;8.662;2023-09-07T07:28:52;100246.53;;;21.43;60.70
11041;BME280;5573;49.592;8.662;2023-09-07T07:31:19;100247.06;;;21.50;62.13
11041;BME280;5573;49.592;8.662;2023-09-07T07:33:48;100245.16;;;21.60;60.14
11041;BME280;5573;49.592;8.662;2023-09-07T07:36:17;100247.03;;;21.80;59.30
11041;BME280;5573;49.592;8.662;2023-09-07T07:38:45;100245.41;;;21.84;59.58
11041;BME280;5573;49.592;8.662;2023-09-07T07:41:15;100253.25;;;21.86;59.29
11041;BME280;5573;49.592;8.662;2023-09-07T07:43:43;100235.63;;;22.03;59.23
11041;BME280;5573;49.592;8.662;2023-09-07T07:46:11;100239.94;;;22.14;59.45
11041;BME280;5573;49.592;8.662;2023-09-07T07:48:43;100238.69;;;22.51;57.11
11041;BME280;5573;49.592;8.662;2023-09-07T07:51:11;100246.84;;;22.51;57.38
11041;BME280;5573;49.592;8.662;2023-09-07T07:53:42;100245.47;;;22.53;57.74
11041;BME280;5573;49.592;8.662;2023-09-07T07:56:16;100240.28;;;22.52;57.34
11041;BME280;5573;49.592;8.662;2023-09-07T07:58:46;100238.34;;;22.73;56.93
11041;BME280;5573;49.592;8.662;2023-09-07T08:03:44;100237.41;;;22.92;56.01
11041;BME280;5573;49.592;8.662;2023-09-07T08:06:12;100231.63;;;23.04;55.91
11041;BME280;5573;49.592;8.662;2023-09-07T08:08:41;100239.97;;;23.12;53.57
11041;BME280;5573;49.592;8.662;2023-09-07T08:11:09;100237.69;;;23.30;54.54
11041;BME280;5573;49.592;8.662;2023-09-07T08:13:40;100243.03;;;23.40;56.11
11041;BME280;5573;49.592;8.662;2023-09-07T08:16:11;100228.66;;;23.34;53.89
11041;BME280;5573;49.592;8.662;2023-09-07T08:18:41;100234.88;;;23.40;54.35
11041;BME280;5573;49.592;8.662;2023-09-07T08:21:10;100242.13;;;23.54;53.72
11041;BME280;5573;49.592;8.662;2023-09-07T08:23:39;100239.59;;;23.63;54.36
11041;BME280;5573;49.592;8.662;2023-09-07T08:26:07;100233.00;;;23.69;53.05
11041;BME280;5573;49.592;8.662;2023-09-07T08:28:37;100238.81;;;23.57;53.64
11041;BME280;5573;49.592;8.662;2023-09-07T08:31:06;100235.94;;;23.73;53.27
11041;BME280;5573;49.592;8.662;2023-09-07T08:33:34;100241.97;;;23.93;52.48
11041;BME280;5573;49.592;8.662;2023-09-07T08:36:07;100244.78;;;23.88;52.54
11041;BME280;5573;49.592;8.662;2023-09-07T08:38:36;100244.63;;;24.03;51.46
11041;BME280;5573;49.592;8.662;2023-09-07T08:41:05;100241.09;;;24.03;52.52
11041;BME280;5573;49.592;8.662;2023-09-07T08:43:38;100245.06;;;24.16;51.39
11041;BME280;5573;49.592;8.662;2023-09-07T08:46:13;100246.03;;;24.25;53.27
11041;BME280;5573;49.592;8.662;2023-09-07T08:48:42;100252.13;;;24.40;52.95
11041;BME280;5573;49.592;8.662;2023-09-07T08:51:15;100248.97;;;24.52;50.94
11041;BME280;5573;49.592;8.662;2023-09-07T08:53:43;100247.41;;;24.46;52.08
11041;BME280;5573;49.592;8.662;2023-09-07T08:56:13;100245.50;;;24.65;52.25
11041;BME280;5573;49.592;8.662;2023-09-07T08:58:42;100252.66;;;24.61;50.91
11041;BME280;5573;49.592;8.662;2023-09-07T09:01:13;100245.81;;;24.63;51.44
11041;BME280;5573;49.592;8.662;2023-09-07T09:03:41;100245.78;;;24.87;49.76
11041;BME280;5573;49.592;8.662;2023-09-07T09:06:10;100245.66;;;24.97;50.26
11041;BME280;5573;49.592;8.662;2023-09-07T09:08:42;100242.91;;;24.79;49.95
11041;BME280;5573;49.592;8.662;2023-09-07T09:11:10;100245.50;;;24.89;50.47
11041;BME280;5573;49.592;8.662;2023-09-07T09:13:40;100245.13;;;24.95;51.17
11041;BME280;5573;49.592;8.662;2023-09-07T09:16:08;100240.63;;;25.04;50.40
11041;BME280;5573;49.592;8.662;2023-09-07T09:18:38;100229.72;;;25.04;50.35
11041;BME280;5573;49.592;8.662;2023-09-07T09:21:06;100242.09;;;25.16;49.88
11041;BME280;5573;49.592;8.662;2023-09-07T09:23:35;100237.50;;;25.30;50.02
11041;BME280;5573;49.592;8.662;2023-09-07T09:26:04;100219.94;;;25.36;49.29
11041;BME280;5573;49.592;8.662;2023-09-07T09:28:32;100215.22;;;25.41;49.40
11041;BME280;5573;49.592;8.662;2023-09-07T09:31:02;100230.53;;;25.56;49.26
11041;BME280;5573;49.592;8.662;2023-09-07T09:33:31;100229.75;;;25.69;49.05
11041;BME280;5573;49.592;8.662;2023-09-07T09:36:01;100227.72;;;25.42;48.82
11041;BME280;5573;49.592;8.662;2023-09-07T09:38:29;100227.53;;;25.71;48.47
11041;BME280;5573;49.592;8.662;2023-09-07T09:40:59;100225.63;;;25.85;49.16
11041;BME280;5573;49.592;8.662;2023-09-07T09:43:27;100232.81;;;25.95;48.81
11041;BME280;5573;49.592;8.662;2023-09-07T09:45:56;100231.41;;;26.11;48.74
11041;BME280;5573;49.592;8.662;2023-09-07T09:48:27;100219.06;;;26.00;48.33
11041;BME280;5573;49.592;8.662;2023-09-07T09:50:55;100219.78;;;26.05;48.47
11041;BME280;5573;49.592;8.662;2023-09-07T09:53:26;100207.53;;;26.17;47.92
11041;BME280;5573;49.592;8.662;2023-09-07T09:55:54;100210.69;;;26.37;48.61
11041;BME280;5573;49.592;8.662;2023-09-07T09:58:22;100207.75;;;26.47;47.76
11041;BME280;5573;49.592;8.662;2023-09-07T10:00:52;100205.66;;;26.31;48.67
11041;BME280;5573;49.592;8.662;2023-09-07T10:03:25;100205.91;;;26.43;47.20
11041;BME280;5573;49.592;8.662;2023-09-07T10:06:07;100202.31;;;26.70;46.64
11041;BME280;5573;49.592;8.662;2023-09-07T10:08:36;100194.69;;;26.80;46.31
11041;BME280;5573;49.592;8.662;2023-09-07T10:11:08;100193.09;;;26.79;46.13
11041;BME280;5573;49.592;8.662;2023-09-07T10:13:36;100187.41;;;26.89;45.60
11041;BME280;5573;49.592;8.662;2023-09-07T10:16:05;100182.06;;;26.84;46.32
11041;BME280;5573;49.592;8.662;2023-09-07T10:18:37;100181.50;;;27.18;48.26
11041;BME280;5573;49.592;8.662;2023-09-07T10:21:06;100183.31;;;27.23;47.23
11041;BME280;5573;49.592;8.662;2023-09-07T10:23:39;100172.50;;;27.18;45.90
11041;BME280;5573;49.592;8.662;2023-09-07T10:26:11;100178.09;;;27.57;46.29
11041;BME280;5573;49.592;8.662;2023-09-07T10:28:40;100170.00;;;27.52;45.07
11041;BME280;5573;49.592;8.662;2023-09-07T10:31:14;100179.19;;;27.56;45.86
11041;BME280;5573;49.592;8.662;2023-09-07T10:33:42;100173.78;;;27.65;43.48
11041;BME280;5573;49.592;8.662;2023-09-07T10:36:20;100174.47;;;27.48;45.31
11041;BME280;5573;49.592;8.662;2023-09-07T10:38:50;100171.09;;;27.51;44.09
11041;BME280;5573;49.592;8.662;2023-09-07T10:41:19;100162.56;;;27.83;44.07
11041;BME280;5573;49.592;8.662;2023-09-07T10:43:48;100177.78;;;27.98;45.82
11041;BME280;5573;49.592;8.662;2023-09-07T10:46:18;100169.00;;;27.79;43.51
11041;BME280;5573;49.592;8.662;2023-09-07T10:48:48;100173.53;;;27.83;45.09
11041;BME280;5573;49.592;8.662;2023-09-07T10:51:17;100164.69;;;27.86;43.61
11041;BME280;5573;49.592;8.662;2023-09-07T10:53:45;100161.81;;;28.00;43.13
11041;BME280;5573;49.592;8.662;2023-09-07T10:56:14;100161.63;;;27.96;42.48
11041;BME280;5573;49.592;8.662;2023-09-07T10:58:42;100156.25;;;28.14;43.64
11041;BME280;5573;49.592;8.662;2023-09-07T11:01:11;100145.66;;;28.47;42.76
11041;BME280;5573;49.592;8.662;2023-09-07T11:03:43;100158.38;;;28.34;41.61
11041;BME280;5573;49.592;8.662;2023-09-07T11:06:15;100152.09;;;28.42;41.53
11041;BME280;5573;49.592;8.662;2023-09-07T11:08:44;100151.94;;;28.56;41.35
11041;BME280;5573;49.592;8.662;2023-09-07T11:11:12;100150.81;;;28.48;39.62
11041;BME280;5573;49.592;8.662;2023-09-07T11:13:42;100151.28;;;28.59;42.53
11041;BME280;5573;49.592;8.662;2023-09-07T11:16:10;100141.31;;;28.54;39.94
11041;BME280;5573;49.592;8.662;2023-09-07T11:18:39;100145.66;;;28.64;39.04
11041;BME280;5573;49.592;8.662;2023-09-07T11:21:07;100135.38;;;28.86;36.29
11041;BME280;5573;49.592;8.662;2023-09-07T11:23:35;100132.31;;;28.88;37.99
11041;BME280;5573;49.592;8.662;2023-09-07T11:26:05;100120.53;;;28.87;38.95
11041;BME280;5573;49.592;8.662;2023-09-07T11:28:33;100140.03;;;28.95;39.40
11041;BME280;5573;49.592;8.662;2023-09-07T11:31:03;100132.13;;;29.02;37.53
11041;BME280;5573;49.592;8.662;2023-09-07T11:33:31;100132.78;;;28.99;39.08
11041;BME280;5573;49.592;8.662;2023-09-07T11:36:00;100139.53;;;28.92;39.41
11041;BME280;5573;49.592;8.662;2023-09-07T11:38:30;100137.25;;;29.12;38.88
11041;BME280;5573;49.592;8.662;2023-09-07T11:41:03;100124.03;;;29.14;40.11
11041;BME280;5573;49.592;8.662;2023-09-07T11:43:31;100133.69;;;29.20;38.63
11041;BME280;5573;49.592;8.662;2023-09-07T11:46:02;100139.31;;;29.41;37.87
11041;BME280;5573;49.592;8.662;2023-09-07T11:48:30;100129.13;;;29.41;38.13
11041;BME280;5573;49.592;8.662;2023-09-07T11:50:59;100134.75;;;29.53;39.40
11041;BME280;5573;49.592;8.662;2023-09-07T11:53:27;100143.63;;;29.59;37.80
11041;BME280;5573;49.592;8.662;2023-09-07T11:55:56;100133.19;;;29.44;37.22
11041;BME280;5573;49.592;8.662;2023-09-07T11:58:24;100135.78;;;29.40;35.82
11041;BME280;5573;49.592;8.662;2023-09-07T12:00:56;100130.34;;;29.61;36.77
11041;BME280;5573;49.592;8.662;2023-09-07T12:03:25;100131.41;;;29.39;36.95
11041;BME280;5573;49.592;8.662;2023-09-07T12:05:54;100132.53;;;29.38;37.36
11041;BME280;5573;49.592;8.662;2023-09-07T12:08:22;100142.47;;;29.60;36.80
11041;BME280;5573;49.592;8.662;2023-09-07T12:10:50;100126.81;;;29.52;37.52
11041;BME280;5573;49.592;8.662;2023-09-07T12:13:17;100124.69;;;29.66;38.32
11041;BME280;5573;49.592;8.662;2023-09-07T12:15:45;100123.94;;;29.48;38.51
11041;BME280;5573;49.592;8.662;2023-09-07T12:18:13;100129.00;;;29.75;37.85
11041;BME280;5573;49.592;8.662;2023-09-07T12:20:43;100127.25;;;29.71;37.71
11041;BME280;5573;49.592;8.662;2023-09-07T12:23:12;100127.09;;;29.67;37.49
11041;BME280;5573;49.592;8.662;2023-09-07T12:25:40;100121.41;;;29.34;38.22
11041;BME280;5573;49.592;8.662;2023-09-07T12:28:07;100117.91;;;29.63;37.85
11041;BME280;5573;49.592;8.662;2023-09-07T12:30:35;100109.63;;;29.72;36.63
11041;BME280;5573;49.592;8.662;2023-09-07T12:33:03;100106.34;;;29.78;36.80
11041;BME280;5573;49.592;8.662;2023-09-07T12:35:31;100105.63;;;29.69;34.90
11041;BME280;5573;49.592;8.662;2023-09-07T12:38:00;100102.19;;;29.72;35.25
11041;BME280;5573;49.592;8.662;2023-09-07T12:40:30;100100.41;;;29.85;38.13
11041;BME280;5573;49.592;8.662;2023-09-07T12:43:00;100103.94;;;29.85;37.61
11041;BME280;5573;49.592;8.662;2023-09-07T12:45:28;100106.84;;;29.80;34.25
11041;BME280;5573;49.592;8.662;2023-09-07T12:47:56;100106.50;;;29.82;35.42
11041;BME280;5573;49.592;8.662;2023-09-07T12:50:26;100103.53;;;29.66;36.27
11041;BME280;5573;49.592;8.662;2023-09-07T12:52:54;100106.34;;;29.78;34.80
11041;BME280;5573;49.592;8.662;2023-09-07T12:55:23;100094.84;;;29.94;37.27
11041;BME280;5573;49.592;8.662;2023-09-07T12:57:51;100096.69;;;30.10;36.60
11041;BME280;5573;49.592;8.662;2023-09-07T13:00:19;100102.22;;;30.02;35.13
11041;BME280;5573;49.592;8.662;2023-09-07T13:02:46;100093.72;;;29.95;36.71
11041;BME280;5573;49.592;8.662;2023-09-07T13:05:15;100101.13;;;29.94;34.07
11041;BME280;5573;49.592;8.662;2023-09-07T13:07:43;100097.56;;;29.64;34.53
11041;BME280;5573;49.592;8.662;2023-09-07T13:10:12;100093.84;;;29.60;35.98